Airfield :
LOGIN :

Register | Disclaimer

   EN    FR    IT 

 










Legend :    VFR   Marginal VFR   IFR   Intensive IFR   Very Intensive IFR
Visi :
Ceiling :
>= 8 km
>= 3000ft
5 to 8 km
1000 to 3000 ft
1500m to 5 km
500 to 1000 ft
800 to 1500m
200 to 500 ft
< 800m
< 200 ft
Symbols :   Thunderstorms  Fog  Heavy snow  Heavy precipitations  Wind > 20 kt
SIGMETs :     Misc.  Thunderstorms  Icing  Turbulence  Mountain Waves  Volcanic Ashes







- Airport Elevation : 245 ft
- IATA code : BIQ
- Download approach charts


LFBZ - Biarritz

CURRENT METAR :
  • 211530Z AUTO 16004KT 120V200 CAVOK 27/17 Q1008 NOSIG

EXPIRED METARs :
  • 211500Z AUTO 16005KT 110V200 CAVOK 27/16 Q1008 NOSIG
  • 211430Z AUTO 18008KT 130V230 CAVOK 28/15 Q1008 NOSIG
  • 211400Z AUTO 17009KT 130V230 CAVOK 29/17 Q1008 NOSIG
  • 211330Z AUTO 18008KT 140V250 CAVOK 29/16 Q1009 NOSIG
  • 211300Z AUTO 18008KT 120V250 CAVOK 28/16 Q1009 NOSIG

TAF TAF LFBZ
Valid from the 21 at 12:00 until the 22 at 12:00 UTC


211100Z 2112/2212 17010G20KT CAVOK
BECMG 2202/2204 32010G25KT 4000 RA BKN018 BKN040
BECMG 2208/2210 34006KT 9999 NSW BKN030
No reported NOTAMs for that airfield.



MET'MAP, your aeronautical weather chart ! - Copyright ORBIFLY December 2007 - Disclaimer

ORBIFLY MET'MAP TEAM :

Programming & Development : Alexandra Zaïnal
Concept & Development : Baudouin d'Aumeries
Co-Development & Prog : Marc-Olivier Méhu
Technical & hardware support : Manuel Goepfert

Contact : metmap@orbifly.com




SOURCES & CREDITS :

   NOAA